sensor_id;sensor_type;location;lat;lon;timestamp;pressure;altitude;pressure_sealevel;temperature;humidity
42385;BME280;28042;43.986;22.860;2023-03-14T00:01:12;101491.38;;;0.52;100.00
42385;BME280;28042;43.986;22.860;2023-03-14T00:03:38;101472.09;;;0.35;100.00
42385;BME280;28042;43.986;22.860;2023-03-14T00:06:05;101411.84;;;-0.09;100.00
42385;BME280;28042;43.986;22.860;2023-03-14T00:08:30;101432.75;;;0.22;100.00
42385;BME280;28042;43.986;22.860;2023-03-14T00:10:56;101466.06;;;0.44;100.00
42385;BME280;28042;43.986;22.860;2023-03-14T00:13:23;101471.81;;;0.50;100.00
42385;BME280;28042;43.986;22.860;2023-03-14T00:15:49;101476.13;;;0.53;100.00
42385;BME280;28042;43.986;22.860;2023-03-14T00:18:14;101427.53;;;0.08;100.00
42385;BME280;28042;43.986;22.860;2023-03-14T00:20:40;101435.09;;;0.03;100.00
42385;BME280;28042;43.986;22.860;2023-03-14T00:23:06;101473.44;;;0.16;100.00
42385;BME280;28042;43.986;22.860;2023-03-14T00:25:31;101476.44;;;0.24;100.00
42385;BME280;28042;43.986;22.860;2023-03-14T00:27:57;101444.50;;;0.09;100.00
42385;BME280;28042;43.986;22.860;2023-03-14T00:30:22;101468.25;;;0.26;100.00
42385;BME280;28042;43.986;22.860;2023-03-14T00:32:48;101399.34;;;-0.21;100.00
42385;BME280;28042;43.986;22.860;2023-03-14T00:35:13;101470.22;;;0.24;100.00
42385;BME280;28042;43.986;22.860;2023-03-14T00:37:39;101469.16;;;0.26;100.00
42385;BME280;28042;43.986;22.860;2023-03-14T00:40:05;101397.19;;;-0.16;100.00
42385;BME280;28042;43.986;22.860;2023-03-14T00:42:32;101476.22;;;0.27;100.00
42385;BME280;28042;43.986;22.860;2023-03-14T00:44:58;101458.84;;;0.20;100.00
42385;BME280;28042;43.986;22.860;2023-03-14T00:47:23;101445.75;;;0.16;100.00
42385;BME280;28042;43.986;22.860;2023-03-14T00:49:49;101453.81;;;0.16;100.00
42385;BME280;28042;43.986;22.860;2023-03-14T00:52:14;101447.72;;;0.14;100.00
42385;BME280;28042;43.986;22.860;2023-03-14T00:54:40;101380.16;;;-0.28;100.00
42385;BME280;28042;43.986;22.860;2023-03-14T00:57:05;101398.72;;;-0.25;100.00
42385;BME280;28042;43.986;22.860;2023-03-14T00:59:31;101371.91;;;-0.38;100.00
42385;BME280;28042;43.986;22.860;2023-03-14T01:01:56;101379.66;;;-0.46;100.00
42385;BME280;28042;43.986;22.860;2023-03-14T01:04:22;101333.97;;;-0.81;100.00
42385;BME280;28042;43.986;22.860;2023-03-14T01:06:47;101401.09;;;-0.46;100.00
42385;BME280;28042;43.986;22.860;2023-03-14T01:09:13;101400.91;;;-0.43;100.00
42385;BME280;28042;43.986;22.860;2023-03-14T01:11:38;101444.78;;;-0.20;100.00
42385;BME280;28042;43.986;22.860;2023-03-14T01:14:04;101479.09;;;-0.12;100.00
42385;BME280;28042;43.986;22.860;2023-03-14T01:16:34;101451.13;;;-0.21;100.00
42385;BME280;28042;43.986;22.860;2023-03-14T01:19:01;101451.91;;;-0.32;100.00
42385;BME280;28042;43.986;22.860;2023-03-14T01:21:29;101454.88;;;-0.23;100.00
42385;BME280;28042;43.986;22.860;2023-03-14T01:23:57;101410.09;;;-0.47;100.00
42385;BME280;28042;43.986;22.860;2023-03-14T01:26:25;101448.25;;;-0.31;100.00
42385;BME280;28042;43.986;22.860;2023-03-14T01:28:53;101403.91;;;-0.60;100.00
42385;BME280;28042;43.986;22.860;2023-03-14T01:31:19;101460.03;;;-0.20;100.00
42385;BME280;28042;43.986;22.860;2023-03-14T01:33:45;101385.16;;;-0.60;100.00
42385;BME280;28042;43.986;22.860;2023-03-14T01:36:11;101417.16;;;-0.46;100.00
42385;BME280;28042;43.986;22.860;2023-03-14T01:38:38;101469.47;;;-0.28;100.00
42385;BME280;28042;43.986;22.860;2023-03-14T01:41:06;101386.88;;;-0.72;100.00
42385;BME280;28042;43.986;22.860;2023-03-14T01:43:32;101381.41;;;-0.70;100.00
42385;BME280;28042;43.986;22.860;2023-03-14T01:48:25;101362.34;;;-0.78;100.00
42385;BME280;28042;43.986;22.860;2023-03-14T01:50:52;101436.44;;;-0.28;100.00
42385;BME280;28042;43.986;22.860;2023-03-14T01:53:18;101413.44;;;-0.43;100.00
42385;BME280;28042;43.986;22.860;2023-03-14T01:55:48;101349.41;;;-0.84;100.00
42385;BME280;28042;43.986;22.860;2023-03-14T01:58:14;101410.66;;;-0.54;100.00
42385;BME280;28042;43.986;22.860;2023-03-14T02:00:41;101383.56;;;-0.75;100.00
42385;BME280;28042;43.986;22.860;2023-03-14T02:03:13;101404.31;;;-0.53;100.00
42385;BME280;28042;43.986;22.860;2023-03-14T02:05:40;101429.78;;;-0.35;100.00
42385;BME280;28042;43.986;22.860;2023-03-14T02:08:11;101416.09;;;-0.31;100.00
42385;BME280;28042;43.986;22.860;2023-03-14T02:10:41;101418.22;;;-0.23;100.00
42385;BME280;28042;43.986;22.860;2023-03-14T02:13:08;101346.69;;;-0.59;100.00
42385;BME280;28042;43.986;22.860;2023-03-14T02:15:35;101414.75;;;-0.12;100.00
42385;BME280;28042;43.986;22.860;2023-03-14T02:18:02;101393.97;;;-0.21;100.00
42385;BME280;28042;43.986;22.860;2023-03-14T02:20:36;101406.19;;;-0.17;100.00
42385;BME280;28042;43.986;22.860;2023-03-14T02:23:04;101389.50;;;-0.34;100.00
42385;BME280;28042;43.986;22.860;2023-03-14T02:25:49;101401.03;;;-0.20;100.00
42385;BME280;28042;43.986;22.860;2023-03-14T02:28:17;101316.91;;;-0.67;100.00
42385;BME280;28042;43.986;22.860;2023-03-14T02:30:43;101325.44;;;-0.62;100.00
42385;BME280;28042;43.986;22.860;2023-03-14T02:33:19;101329.56;;;-0.69;100.00
42385;BME280;28042;43.986;22.860;2023-03-14T02:38:37;101400.53;;;-0.25;100.00
42385;BME280;28042;43.986;22.860;2023-03-14T02:41:07;101315.50;;;-0.73;100.00
42385;BME280;28042;43.986;22.860;2023-03-14T02:43:33;101381.47;;;-0.34;100.00
42385;BME280;28042;43.986;22.860;2023-03-14T02:46:00;101378.38;;;-0.40;100.00
42385;BME280;28042;43.986;22.860;2023-03-14T02:48:30;101323.78;;;-0.76;100.00
42385;BME280;28042;43.986;22.860;2023-03-14T02:50:59;101385.19;;;-0.23;100.00
42385;BME280;28042;43.986;22.860;2023-03-14T02:53:27;101316.69;;;-0.64;100.00
42385;BME280;28042;43.986;22.860;2023-03-14T02:55:54;101308.13;;;-0.69;100.00
42385;BME280;28042;43.986;22.860;2023-03-14T02:58:20;101391.97;;;-0.31;100.00
42385;BME280;28042;43.986;22.860;2023-03-14T03:00:46;101377.72;;;-0.44;100.00
42385;BME280;28042;43.986;22.860;2023-03-14T03:03:13;101407.31;;;-0.33;100.00
42385;BME280;28042;43.986;22.860;2023-03-14T03:05:38;101317.47;;;-0.75;100.00
42385;BME280;28042;43.986;22.860;2023-03-14T03:08:04;101320.31;;;-0.65;100.00
42385;BME280;28042;43.986;22.860;2023-03-14T03:10:30;101327.94;;;-0.59;100.00
42385;BME280;28042;43.986;22.860;2023-03-14T03:12:56;101319.06;;;-0.72;100.00
42385;BME280;28042;43.986;22.860;2023-03-14T03:15:22;101400.22;;;-0.34;100.00
42385;BME280;28042;43.986;22.860;2023-03-14T03:17:47;101351.81;;;-0.56;100.00
42385;BME280;28042;43.986;22.860;2023-03-14T03:20:13;101398.53;;;-0.35;100.00
42385;BME280;28042;43.986;22.860;2023-03-14T03:22:38;101322.94;;;-0.89;100.00
42385;BME280;28042;43.986;22.860;2023-03-14T03:25:05;101396.63;;;-0.58;100.00
42385;BME280;28042;43.986;22.860;2023-03-14T03:27:32;101333.66;;;-1.02;100.00
42385;BME280;28042;43.986;22.860;2023-03-14T03:29:58;101341.56;;;-1.13;100.00
42385;BME280;28042;43.986;22.860;2023-03-14T03:32:24;101416.34;;;-0.84;100.00
42385;BME280;28042;43.986;22.860;2023-03-14T03:34:49;101402.81;;;-0.96;100.00
42385;BME280;28042;43.986;22.860;2023-03-14T03:37:15;101346.28;;;-1.29;100.00
42385;BME280;28042;43.986;22.860;2023-03-14T03:39:40;101340.41;;;-1.34;100.00
42385;BME280;28042;43.986;22.860;2023-03-14T03:42:06;101356.88;;;-1.28;100.00
42385;BME280;28042;43.986;22.860;2023-03-14T03:44:31;101345.97;;;-1.37;100.00
42385;BME280;28042;43.986;22.860;2023-03-14T03:46:56;101412.59;;;-0.95;100.00
42385;BME280;28042;43.986;22.860;2023-03-14T03:49:22;101337.31;;;-1.28;100.00
42385;BME280;28042;43.986;22.860;2023-03-14T03:51:47;101344.38;;;-1.27;100.00
42385;BME280;28042;43.986;22.860;2023-03-14T03:54:13;101398.44;;;-0.97;100.00
42385;BME280;28042;43.986;22.860;2023-03-14T03:56:38;101327.66;;;-1.44;100.00
42385;BME280;28042;43.986;22.860;2023-03-14T03:59:04;101404.00;;;-1.00;100.00
42385;BME280;28042;43.986;22.860;2023-03-14T04:01:29;101399.50;;;-0.99;100.00
42385;BME280;28042;43.986;22.860;2023-03-14T04:03:54;101289.00;;;-1.65;100.00
42385;BME280;28042;43.986;22.860;2023-03-14T04:06:20;101338.13;;;-1.40;100.00
42385;BME280;28042;43.986;22.860;2023-03-14T04:08:45;101318.72;;;-1.57;100.00
42385;BME280;28042;43.986;22.860;2023-03-14T04:11:11;101340.47;;;-1.49;100.00
42385;BME280;28042;43.986;22.860;2023-03-14T04:13:36;101403.75;;;-1.22;100.00
42385;BME280;28042;43.986;22.860;2023-03-14T04:16:02;101409.25;;;-1.11;100.00
42385;BME280;28042;43.986;22.860;2023-03-14T04:18:27;101387.00;;;-1.11;100.00
42385;BME280;28042;43.986;22.860;2023-03-14T04:20:56;101307.94;;;-1.43;100.00
42385;BME280;28042;43.986;22.860;2023-03-14T04:23:23;101311.72;;;-1.45;100.00
42385;BME280;28042;43.986;22.860;2023-03-14T04:25:52;101375.63;;;-1.15;100.00
42385;BME280;28042;43.986;22.860;2023-03-14T04:28:18;101365.03;;;-1.29;100.00
42385;BME280;28042;43.986;22.860;2023-03-14T04:30:44;101372.19;;;-1.17;100.00
42385;BME280;28042;43.986;22.860;2023-03-14T04:33:10;101392.75;;;-1.05;100.00
42385;BME280;28042;43.986;22.860;2023-03-14T04:35:37;101319.09;;;-1.36;100.00
42385;BME280;28042;43.986;22.860;2023-03-14T04:38:03;101380.16;;;-1.03;100.00
42385;BME280;28042;43.986;22.860;2023-03-14T04:40:28;101390.63;;;-1.00;100.00
42385;BME280;28042;43.986;22.860;2023-03-14T04:42:54;101396.41;;;-1.06;100.00
42385;BME280;28042;43.986;22.860;2023-03-14T04:45:19;101310.94;;;-1.60;100.00
42385;BME280;28042;43.986;22.860;2023-03-14T04:47:45;101317.88;;;-1.57;100.00
42385;BME280;28042;43.986;22.860;2023-03-14T04:50:11;101328.69;;;-1.59;100.00
42385;BME280;28042;43.986;22.860;2023-03-14T04:52:36;101384.72;;;-1.30;100.00
42385;BME280;28042;43.986;22.860;2023-03-14T04:55:02;101394.88;;;-1.35;100.00
42385;BME280;28042;43.986;22.860;2023-03-14T04:57:27;101326.53;;;-1.79;100.00
42385;BME280;28042;43.986;22.860;2023-03-14T04:59:53;101358.84;;;-1.57;100.00
42385;BME280;28042;43.986;22.860;2023-03-14T05:02:18;101406.88;;;-1.28;100.00
42385;BME280;28042;43.986;22.860;2023-03-14T05:04:44;101384.72;;;-1.30;100.00
42385;BME280;28042;43.986;22.860;2023-03-14T05:07:09;101407.78;;;-1.02;100.00
42385;BME280;28042;43.986;22.860;2023-03-14T05:09:35;101328.53;;;-1.30;100.00
42385;BME280;28042;43.986;22.860;2023-03-14T05:12:00;101404.47;;;-0.68;100.00
42385;BME280;28042;43.986;22.860;2023-03-14T05:14:26;101383.13;;;-0.69;100.00
42385;BME280;28042;43.986;22.860;2023-03-14T05:16:51;101379.66;;;-0.46;100.00
42385;BME280;28042;43.986;22.860;2023-03-14T05:19:17;101393.72;;;-0.18;100.00
42385;BME280;28042;43.986;22.860;2023-03-14T05:21:42;101370.66;;;0.16;100.00
42385;BME280;28042;43.986;22.860;2023-03-14T05:24:07;101377.00;;;0.39;100.00
42385;BME280;28042;43.986;22.860;2023-03-14T05:26:33;101340.19;;;0.52;100.00
42385;BME280;28042;43.986;22.860;2023-03-14T05:28:58;101321.97;;;1.02;100.00
42385;BME280;28042;43.986;22.860;2023-03-14T05:31:24;101287.78;;;1.26;100.00
42385;BME280;28042;43.986;22.860;2023-03-14T05:33:49;101334.13;;;1.95;100.00
42385;BME280;28042;43.986;22.860;2023-03-14T05:36:15;101346.41;;;2.41;100.00
42385;BME280;28042;43.986;22.860;2023-03-14T05:38:40;101348.16;;;2.84;100.00
42385;BME280;28042;43.986;22.860;2023-03-14T05:41:06;101307.72;;;2.84;100.00
42385;BME280;28042;43.986;22.860;2023-03-14T05:43:31;101260.59;;;2.99;95.46
42385;BME280;28042;43.986;22.860;2023-03-14T05:45:57;101296.84;;;3.56;90.00
42385;BME280;28042;43.986;22.860;2023-03-14T05:48:22;101334.16;;;4.20;87.69
42385;BME280;28042;43.986;22.860;2023-03-14T05:50:48;101284.16;;;4.36;85.31
42385;BME280;28042;43.986;22.860;2023-03-14T05:53:14;101301.44;;;4.72;81.62
42385;BME280;28042;43.986;22.860;2023-03-14T05:55:40;101296.00;;;4.81;77.90
42385;BME280;28042;43.986;22.860;2023-03-14T05:58:06;101298.34;;;4.57;77.04
42385;BME280;28042;43.986;22.860;2023-03-14T06:00:31;101355.59;;;4.90;77.21
42385;BME280;28042;43.986;22.860;2023-03-14T06:02:57;101342.25;;;4.69;76.77
42385;BME280;28042;43.986;22.860;2023-03-14T06:05:22;101360.06;;;4.52;77.63
42385;BME280;28042;43.986;22.860;2023-03-14T06:07:47;101299.16;;;3.90;79.21
42385;BME280;28042;43.986;22.860;2023-03-14T06:10:13;101284.41;;;3.84;80.67
42385;BME280;28042;43.986;22.860;2023-03-14T06:12:38;101337.31;;;4.35;81.27
42385;BME280;28042;43.986;22.860;2023-03-14T06:15:04;101300.34;;;4.36;79.48
42385;BME280;28042;43.986;22.860;2023-03-14T06:17:30;101337.59;;;4.61;79.14
42385;BME280;28042;43.986;22.860;2023-03-14T06:19:56;101290.41;;;4.27;77.79
42385;BME280;28042;43.986;22.860;2023-03-14T06:22:21;101302.31;;;4.14;78.11
42385;BME280;28042;43.986;22.860;2023-03-14T06:24:47;101346.69;;;4.31;79.72
42385;BME280;28042;43.986;22.860;2023-03-14T06:27:12;101275.88;;;3.89;80.00
42385;BME280;28042;43.986;22.860;2023-03-14T06:29:37;101297.47;;;3.89;80.88
42385;BME280;28042;43.986;22.860;2023-03-14T06:32:03;101281.53;;;3.66;82.17
42385;BME280;28042;43.986;22.860;2023-03-14T06:34:29;101317.97;;;4.01;82.98
42385;BME280;28042;43.986;22.860;2023-03-14T06:36:55;101279.41;;;3.80;82.36
42385;BME280;28042;43.986;22.860;2023-03-14T06:39:20;101344.81;;;4.12;83.88
42385;BME280;28042;43.986;22.860;2023-03-14T06:41:46;101350.59;;;3.98;84.58
42385;BME280;28042;43.986;22.860;2023-03-14T06:44:12;101356.28;;;3.95;86.20
42385;BME280;28042;43.986;22.860;2023-03-14T06:46:37;101325.31;;;3.89;87.37
42385;BME280;28042;43.986;22.860;2023-03-14T06:49:03;101278.09;;;3.64;87.57
42385;BME280;28042;43.986;22.860;2023-03-14T06:51:28;101317.81;;;3.93;88.90
42385;BME280;28042;43.986;22.860;2023-03-14T06:53:54;101343.28;;;4.19;88.41
42385;BME280;28042;43.986;22.860;2023-03-14T06:56:19;101346.97;;;4.28;87.50
42385;BME280;28042;43.986;22.860;2023-03-14T06:58:45;101320.53;;;4.12;87.37
42385;BME280;28042;43.986;22.860;2023-03-14T07:01:28;101351.53;;;4.47;85.68
42385;BME280;28042;43.986;22.860;2023-03-14T07:03:54;101296.06;;;4.23;85.08
42385;BME280;28042;43.986;22.860;2023-03-14T07:06:19;101313.84;;;4.55;85.01
42385;BME280;28042;43.986;22.860;2023-03-14T07:08:45;101335.25;;;4.86;83.67
42385;BME280;28042;43.986;22.860;2023-03-14T07:11:11;101337.81;;;4.77;81.73
42385;BME280;28042;43.986;22.860;2023-03-14T07:13:38;101257.44;;;4.13;80.89
42385;BME280;28042;43.986;22.860;2023-03-14T07:16:04;101329.00;;;4.85;80.85
42385;BME280;28042;43.986;22.860;2023-03-14T07:18:30;101264.63;;;4.71;80.27
42385;BME280;28042;43.986;22.860;2023-03-14T07:20:55;101331.81;;;5.13;79.90
42385;BME280;28042;43.986;22.860;2023-03-14T07:23:21;101268.41;;;4.88;78.58
42385;BME280;28042;43.986;22.860;2023-03-14T07:25:46;101252.13;;;5.07;78.20
42385;BME280;28042;43.986;22.860;2023-03-14T07:28:12;101312.72;;;5.14;77.46
42385;BME280;28042;43.986;22.860;2023-03-14T07:30:37;101303.47;;;5.44;77.85
42385;BME280;28042;43.986;22.860;2023-03-14T07:33:03;101260.34;;;5.43;76.77
42385;BME280;28042;43.986;22.860;2023-03-14T07:35:28;101305.47;;;5.97;75.64
42385;BME280;28042;43.986;22.860;2023-03-14T07:37:54;101284.13;;;5.94;73.55
42385;BME280;28042;43.986;22.860;2023-03-14T07:40:19;101309.97;;;6.24;71.37
42385;BME280;28042;43.986;22.860;2023-03-14T07:42:45;101316.63;;;6.47;70.69
42385;BME280;28042;43.986;22.860;2023-03-14T07:45:10;101260.94;;;5.91;70.17
42385;BME280;28042;43.986;22.860;2023-03-14T07:47:36;101260.28;;;6.15;70.35
42385;BME280;28042;43.986;22.860;2023-03-14T07:50:03;101282.81;;;6.51;66.46
42385;BME280;28042;43.986;22.860;2023-03-14T07:52:29;101301.31;;;6.82;65.42
42385;BME280;28042;43.986;22.860;2023-03-14T07:54:55;101270.63;;;7.07;67.54
42385;BME280;28042;43.986;22.860;2023-03-14T07:57:21;101212.94;;;6.97;63.01
42385;BME280;28042;43.986;22.860;2023-03-14T07:59:46;101263.00;;;7.45;62.53
42385;BME280;28042;43.986;22.860;2023-03-14T08:02:12;101256.38;;;7.40;62.50
42385;BME280;28042;43.986;22.860;2023-03-14T08:04:39;101251.19;;;7.62;63.99
42385;BME280;28042;43.986;22.860;2023-03-14T08:07:05;101192.41;;;7.37;61.53
42385;BME280;28042;43.986;22.860;2023-03-14T08:09:31;101242.50;;;7.51;61.44
42385;BME280;28042;43.986;22.860;2023-03-14T08:11:57;101241.84;;;7.15;64.60
42385;BME280;28042;43.986;22.860;2023-03-14T08:14:22;101182.47;;;7.12;65.55
42385;BME280;28042;43.986;22.860;2023-03-14T08:16:49;101237.44;;;7.64;64.11
42385;BME280;28042;43.986;22.860;2023-03-14T08:19:15;101170.53;;;7.47;61.48
42385;BME280;28042;43.986;22.860;2023-03-14T08:21:40;101228.31;;;7.65;62.03
42385;BME280;28042;43.986;22.860;2023-03-14T08:24:06;101222.47;;;7.52;63.11
42385;BME280;28042;43.986;22.860;2023-03-14T08:26:32;101219.53;;;7.37;63.25
42385;BME280;28042;43.986;22.860;2023-03-14T08:28:57;101218.56;;;7.46;62.35
42385;BME280;28042;43.986;22.860;2023-03-14T08:31:22;101182.97;;;7.57;61.67
42385;BME280;28042;43.986;22.860;2023-03-14T08:33:48;101167.88;;;7.79;61.81
42385;BME280;28042;43.986;22.860;2023-03-14T08:36:14;101174.16;;;7.72;61.62
42385;BME280;28042;43.986;22.860;2023-03-14T08:38:39;101173.00;;;7.82;60.35
42385;BME280;28042;43.986;22.860;2023-03-14T08:41:07;101197.44;;;7.99;60.42
42385;BME280;28042;43.986;22.860;2023-03-14T08:43:38;101221.91;;;8.31;59.92
42385;BME280;28042;43.986;22.860;2023-03-14T08:46:05;101172.50;;;8.03;59.69
42385;BME280;28042;43.986;22.860;2023-03-14T08:48:30;101200.00;;;8.41;61.27
42385;BME280;28042;43.986;22.860;2023-03-14T08:51:20;101147.13;;;8.60;61.94
42385;BME280;28042;43.986;22.860;2023-03-14T08:53:45;101186.13;;;9.39;60.13
42385;BME280;28042;43.986;22.860;2023-03-14T08:56:11;101205.78;;;9.57;58.90
42385;BME280;28042;43.986;22.860;2023-03-14T08:58:37;101128.34;;;9.20;58.93
42385;BME280;28042;43.986;22.860;2023-03-14T09:01:04;101194.97;;;9.41;59.44
42385;BME280;28042;43.986;22.860;2023-03-14T09:03:30;101108.31;;;8.82;59.87
42385;BME280;28042;43.986;22.860;2023-03-14T09:05:56;101115.59;;;8.90;60.44
42385;BME280;28042;43.986;22.860;2023-03-14T09:08:21;101166.63;;;8.88;59.74
42385;BME280;28042;43.986;22.860;2023-03-14T09:10:46;101162.88;;;8.89;59.30
42385;BME280;28042;43.986;22.860;2023-03-14T09:13:12;101101.88;;;8.75;58.26
42385;BME280;28042;43.986;22.860;2023-03-14T09:15:37;101170.59;;;9.47;58.26
42385;BME280;28042;43.986;22.860;2023-03-14T09:18:04;101147.53;;;9.58;56.86
42385;BME280;28042;43.986;22.860;2023-03-14T09:20:29;101158.91;;;10.07;56.62
42385;BME280;28042;43.986;22.860;2023-03-14T09:22:55;101164.75;;;10.27;55.36
42385;BME280;28042;43.986;22.860;2023-03-14T09:25:21;101147.06;;;10.38;53.99
42385;BME280;28042;43.986;22.860;2023-03-14T09:27:46;101153.69;;;10.43;53.40
42385;BME280;28042;43.986;22.860;2023-03-14T09:30:12;101140.13;;;10.12;53.39
42385;BME280;28042;43.986;22.860;2023-03-14T09:32:37;101061.50;;;9.49;55.27
42385;BME280;28042;43.986;22.860;2023-03-14T09:35:03;101098.63;;;9.42;55.57
42385;BME280;28042;43.986;22.860;2023-03-14T09:37:29;101107.09;;;9.70;55.41
42385;BME280;28042;43.986;22.860;2023-03-14T09:39:54;101098.63;;;9.87;56.09
42385;BME280;28042;43.986;22.860;2023-03-14T09:42:23;101089.31;;;9.82;55.98
42385;BME280;28042;43.986;22.860;2023-03-14T09:44:57;101035.66;;;9.82;56.08
42385;BME280;28042;43.986;22.860;2023-03-14T09:47:25;101089.16;;;9.98;55.81
42385;BME280;28042;43.986;22.860;2023-03-14T09:49:52;101094.25;;;10.01;56.40
42385;BME280;28042;43.986;22.860;2023-03-14T09:52:32;101092.19;;;9.80;56.26
42385;BME280;28042;43.986;22.860;2023-03-14T09:55:04;101102.63;;;9.77;57.52
42385;BME280;28042;43.986;22.860;2023-03-14T09:57:32;101099.16;;;10.20;56.99
42385;BME280;28042;43.986;22.860;2023-03-14T10:00:14;101092.72;;;10.36;55.91
42385;BME280;28042;43.986;22.860;2023-03-14T10:02:54;101023.94;;;10.11;55.64
42385;BME280;28042;43.986;22.860;2023-03-14T10:05:23;101003.19;;;10.40;55.79
42385;BME280;28042;43.986;22.860;2023-03-14T10:07:49;101065.28;;;10.53;54.70
42385;BME280;28042;43.986;22.860;2023-03-14T10:10:19;101071.91;;;10.20;56.24
42385;BME280;28042;43.986;22.860;2023-03-14T10:12:47;101070.53;;;10.39;55.43
42385;BME280;28042;43.986;22.860;2023-03-14T10:15:15;101060.53;;;10.76;56.22
42385;BME280;28042;43.986;22.860;2023-03-14T10:17:49;101055.13;;;11.12;55.25
42385;BME280;28042;43.986;22.860;2023-03-14T10:25:31;101043.59;;;10.95;56.25
42385;BME280;28042;43.986;22.860;2023-03-14T10:27:58;101031.63;;;11.18;55.33
42385;BME280;28042;43.986;22.860;2023-03-14T10:33:18;100974.16;;;11.47;54.39
42385;BME280;28042;43.986;22.860;2023-03-14T10:35:45;100974.06;;;11.13;54.68
42385;BME280;28042;43.986;22.860;2023-03-14T10:38:13;101018.25;;;11.66;53.91
42385;BME280;28042;43.986;22.860;2023-03-14T10:40:45;100954.81;;;11.21;53.67
42385;BME280;28042;43.986;22.860;2023-03-14T10:43:17;100981.19;;;11.56;53.96
42385;BME280;28042;43.986;22.860;2023-03-14T10:45:52;101007.81;;;11.76;53.83
42385;BME280;28042;43.986;22.860;2023-03-14T10:48:43;100995.91;;;11.62;53.26
42385;BME280;28042;43.986;22.860;2023-03-14T10:54:29;100986.69;;;11.20;54.94
42385;BME280;28042;43.986;22.860;2023-03-14T10:57:01;100977.16;;;10.88;55.24
42385;BME280;28042;43.986;22.860;2023-03-14T10:59:35;100969.44;;;11.13;55.21
42385;BME280;28042;43.986;22.860;2023-03-14T11:02:27;100956.59;;;11.35;54.64
42385;BME280;28042;43.986;22.860;2023-03-14T11:05:31;100945.69;;;11.63;54.25
42385;BME280;28042;43.986;22.860;2023-03-14T11:08:23;100922.50;;;11.52;54.82
42385;BME280;28042;43.986;22.860;2023-03-14T11:10:54;100919.69;;;11.46;54.91
42385;BME280;28042;43.986;22.860;2023-03-14T11:13:26;100899.09;;;11.43;55.10
42385;BME280;28042;43.986;22.860;2023-03-14T11:15:59;100899.94;;;12.00;54.16
42385;BME280;28042;43.986;22.860;2023-03-14T11:35:03;100802.44;;;12.40;51.62
42385;BME280;28042;43.986;22.860;2023-03-14T11:37:36;100832.38;;;12.74;51.05
42385;BME280;28042;43.986;22.860;2023-03-14T11:40:22;100848.84;;;12.94;50.76
42385;BME280;28042;43.986;22.860;2023-03-14T11:45:38;100834.53;;;12.99;50.66
42385;BME280;28042;43.986;22.860;2023-03-14T11:48:17;100820.19;;;12.97;50.49
42385;BME280;28042;43.986;22.860;2023-03-14T11:50:47;100817.63;;;13.55;50.46
42385;BME280;28042;43.986;22.860;2023-03-14T11:56:23;100811.81;;;13.90;47.37
42385;BME280;28042;43.986;22.860;2023-03-14T11:59:01;100800.16;;;14.07;47.18
42385;BME280;28042;43.986;22.860;2023-03-14T12:01:30;100805.50;;;13.89;46.81
42385;BME280;28042;43.986;22.860;2023-03-14T12:04:09;100752.28;;;13.52;47.20
42385;BME280;28042;43.986;22.860;2023-03-14T12:06:48;100767.28;;;13.94;46.61
42385;BME280;28042;43.986;22.860;2023-03-14T12:09:16;100775.31;;;13.96;46.41
42385;BME280;28042;43.986;22.860;2023-03-14T12:11:57;100697.03;;;13.55;46.42
42385;BME280;28042;43.986;22.860;2023-03-14T12:14:30;100754.66;;;13.93;46.13
42385;BME280;28042;43.986;22.860;2023-03-14T12:17:21;100733.78;;;13.85;46.64
42385;BME280;28042;43.986;22.860;2023-03-14T12:19:55;100726.75;;;14.03;46.44
42385;BME280;28042;43.986;22.860;2023-03-14T12:22:36;100686.47;;;13.65;46.52
42385;BME280;28042;43.986;22.860;2023-03-14T12:30:39;100720.53;;;13.82;44.93
42385;BME280;28042;43.986;22.860;2023-03-14T12:35:50;100653.13;;;13.23;45.26
42385;BME280;28042;43.986;22.860;2023-03-14T12:38:18;100710.88;;;13.73;43.99
42385;BME280;28042;43.986;22.860;2023-03-14T12:43:31;100680.25;;;14.39;41.76
42385;BME280;28042;43.986;22.860;2023-03-14T12:46:22;100684.19;;;14.75;40.75
42385;BME280;28042;43.986;22.860;2023-03-14T12:51:28;100678.13;;;14.41;41.12
42385;BME280;28042;43.986;22.860;2023-03-14T12:56:24;100652.09;;;14.51;40.73
42385;BME280;28042;43.986;22.860;2023-03-14T13:01:24;100650.00;;;14.53;40.59
42385;BME280;28042;43.986;22.860;2023-03-14T13:03:52;100648.31;;;14.52;40.76
42385;BME280;28042;43.986;22.860;2023-03-14T13:12:18;100556.91;;;13.76;41.51
42385;BME280;28042;43.986;22.860;2023-03-14T13:14:49;100599.78;;;13.96;41.75
42385;BME280;28042;43.986;22.860;2023-03-14T13:17:22;100573.59;;;14.00;41.76
42385;BME280;28042;43.986;22.860;2023-03-14T13:19:54;100601.03;;;14.25;41.83
42385;BME280;28042;43.986;22.860;2023-03-14T13:22:29;100551.84;;;13.98;41.15
42385;BME280;28042;43.986;22.860;2023-03-14T13:25:04;100591.66;;;14.32;41.70
42385;BME280;28042;43.986;22.860;2023-03-14T13:27:33;100581.31;;;14.34;41.53
42385;BME280;28042;43.986;22.860;2023-03-14T13:30:18;100537.84;;;14.31;41.61
42385;BME280;28042;43.986;22.860;2023-03-14T13:32:46;100530.91;;;14.54;41.18
42385;BME280;28042;43.986;22.860;2023-03-14T13:36:03;100561.03;;;14.79;41.22
42385;BME280;28042;43.986;22.860;2023-03-14T13:38:30;100553.91;;;15.08;41.26
42385;BME280;28042;43.986;22.860;2023-03-14T13:40:58;100500.00;;;14.95;40.69
42385;BME280;28042;43.986;22.860;2023-03-14T13:43:30;100552.78;;;15.27;40.07
42385;BME280;28042;43.986;22.860;2023-03-14T13:46:17;100518.13;;;15.26;40.21
42385;BME280;28042;43.986;22.860;2023-03-14T13:48:48;100517.47;;;15.42;40.31